Time;durP1;ratioP1;P1;durP2;ratioP2;P2;SDS_P1;SDS_P2;PMS_P1;PMS_P2;Temp;Humidity;BMP_temperature;BMP_pressure;BME280_temperature;BME280_humidity;BME280_pressure;Samples;Min_cycle;Max_cycle;Signal;HPM_P1;HPM_P2
2021/12/23 00:00:43;;;;;;;34.02;19.31;;;;;;;-5.04;86.95;99615.97;1990327;79;52021;-74
2021/12/23 00:03:46;;;;;;;31.10;19.09;;;;;;;-5.04;86.70;99607.50;1992326;81;20278;-74
2021/12/23 00:06:49;;;;;;;33.08;19.09;;;;;;;-5.02;86.74;99603.44;1992057;81;20191;-74
2021/12/23 00:10:04;;;;;;;33.42;18.33;;;;;;;-5.04;86.59;99595.72;1992417;81;20187;-74
2021/12/23 00:13:07;;;;;;;30.73;18.23;;;;;;;-5.07;86.55;99590.47;1992570;81;20183;-74
2021/12/23 00:16:18;;;;;;;31.86;17.97;;;;;;;-5.08;86.40;99582.78;1991239;79;24731;-74
2021/12/23 00:25:55;;;;;;;36.23;20.22;;;;;;;-5.12;86.00;99564.03;1992191;81;20205;-74
2021/12/23 00:28:58;;;;;;;30.18;18.04;;;;;;;-5.17;86.06;99571.34;1988364;81;20195;-74
2021/12/23 00:32:04;;;;;;;32.67;18.84;;;;;;;-5.21;86.06;99566.91;1991006;78;21520;-74
2021/12/23 00:35:29;;;;;;;;;;;;;;;-5.25;86.24;99569.13;2016689;71;20192;-73
2021/12/23 00:38:37;;;;;;;32.36;17.52;;;;;;;-5.27;86.48;99566.50;1987507;81;20073;-73
2021/12/23 00:41:42;;;;;;;31.53;18.08;;;;;;;-5.25;86.77;99561.53;1987289;81;20221;-74
2021/12/23 00:44:47;;;;;;;33.74;18.14;;;;;;;-5.25;86.82;99541.28;1983910;81;20183;-74
2021/12/23 00:47:50;;;;;;;33.33;18.51;;;;;;;-5.20;86.94;99534.88;1985632;79;21534;-74
2021/12/23 00:50:53;;;;;;;32.58;18.77;;;;;;;-5.19;86.84;99534.09;1986701;81;20759;-73
2021/12/23 00:54:04;;;;;;;27.96;17.22;;;;;;;-5.13;86.91;99524.31;1987112;81;20209;-74
2021/12/23 00:57:06;;;;;;;33.92;18.60;;;;;;;-5.09;86.76;99523.72;1987036;81;20703;-73
2021/12/23 01:00:18;;;;;;;29.54;17.23;;;;;;;-5.10;86.62;99518.56;1985709;81;20199;-74
2021/12/23 01:03:21;;;;;;;31.59;17.14;;;;;;;-5.10;86.65;99521.97;1983013;81;20196;-74
2021/12/23 01:06:23;;;;;;;31.01;18.17;;;;;;;-5.13;86.63;99525.97;1986673;81;20260;-74
2021/12/23 01:09:26;;;;;;;29.21;17.93;;;;;;;-5.12;86.77;99521.00;1987249;81;20992;-73
2021/12/23 01:12:36;;;;;;;34.04;17.99;;;;;;;-5.06;86.99;99523.88;1986849;81;20862;-73
2021/12/23 01:15:50;;;;;;;31.31;17.63;;;;;;;-5.02;87.15;99524.97;1985511;79;21627;-73
2021/12/23 01:18:54;;;;;;;32.16;17.92;;;;;;;-4.99;87.25;99517.53;1986642;81;20196;-73
2021/12/23 01:21:56;;;;;;;29.74;18.14;;;;;;;-4.94;87.35;99511.06;1987683;81;20202;-74
2021/12/23 01:24:59;;;;;;;35.26;18.89;;;;;;;-4.90;87.58;99513.88;1986882;81;20195;-73
2021/12/23 01:28:03;;;;;;;32.76;18.36;;;;;;;-4.88;87.51;99498.75;1987270;81;20192;-73
2021/12/23 01:31:06;;;;;;;28.73;17.30;;;;;;;-4.88;87.47;99509.75;1985459;78;20311;-74
2021/12/23 01:34:08;;;;;;;28.42;17.18;;;;;;;-4.86;87.55;99509.84;1987274;81;20661;-73
2021/12/23 01:37:11;;;;;;;31.78;18.56;;;;;;;-4.85;87.53;99506.53;1987104;81;20362;-74
2021/12/23 01:40:16;;;;;;;31.03;17.87;;;;;;;-4.80;87.61;99516.94;1985888;81;20188;-73
2021/12/23 01:43:20;;;;;;;30.39;18.12;;;;;;;-4.77;87.61;99517.13;1986682;81;20188;-73
2021/12/23 01:46:24;;;;;;;30.02;17.54;;;;;;;-4.78;87.56;99520.44;1983959;79;26272;-73
2021/12/23 01:49:26;;;;;;;27.18;17.60;;;;;;;-4.81;87.58;99513.53;1981940;82;20290;-74
2021/12/23 01:52:29;;;;;;;27.80;17.41;;;;;;;-4.83;87.61;99519.31;1981983;82;20201;-73
2021/12/23 01:55:32;;;;;;;30.31;17.07;;;;;;;-4.82;87.66;99521.94;1982157;82;20180;-74
2021/12/23 01:58:37;;;;;;;29.49;17.26;;;;;;;-4.81;87.61;99511.00;1982043;82;20708;-73
2021/12/23 02:01:41;;;;;;;29.27;17.20;;;;;;;-4.82;87.57;99508.41;1980028;80;21578;-73
2021/12/23 02:04:44;;;;;;;33.00;18.61;;;;;;;-4.82;87.45;99505.88;1982681;82;20694;-73
2021/12/23 02:07:47;;;;;;;29.22;16.73;;;;;;;-4.81;87.36;99502.53;1982085;82;20177;-73
2021/12/23 02:10:52;;;;;;;31.49;18.39;;;;;;;-4.82;87.24;99508.41;1982198;82;20232;-74
2021/12/23 02:13:55;;;;;;;27.16;17.81;;;;;;;-4.80;87.38;99489.09;1981875;82;20206;-73
2021/12/23 02:16:57;;;;;;;28.44;16.39;;;;;;;-4.79;87.38;99490.84;1983310;79;20315;-73
2021/12/23 02:20:00;;;;;;;26.84;17.11;;;;;;;-4.77;87.48;99480.00;1986763;81;20187;-74
2021/12/23 02:23:04;;;;;;;31.30;17.86;;;;;;;-4.73;87.47;99478.50;1987513;81;20248;-73
2021/12/23 02:26:07;;;;;;;28.50;17.70;;;;;;;-4.69;87.69;99468.63;1987477;81;20726;-74
2021/12/23 02:29:09;;;;;;;28.04;17.50;;;;;;;-4.62;87.73;99458.09;1987612;81;20191;-74
2021/12/23 02:32:12;;;;;;;34.78;19.47;;;;;;;-4.59;87.86;99468.38;1985783;79;20231;-73
2021/12/23 02:35:17;;;;;;;33.92;19.01;;;;;;;-4.52;87.94;99468.72;1987792;81;20253;-74
2021/12/23 02:38:20;;;;;;;31.69;18.68;;;;;;;-4.45;88.01;99470.81;1987963;81;20203;-74
2021/12/23 02:41:23;;;;;;;32.90;17.06;;;;;;;-4.38;88.06;99471.22;1988182;81;20171;-74
2021/12/23 02:44:29;;;;;;;27.94;17.38;;;;;;;-4.34;88.07;99475.69;1983853;81;20785;-74
2021/12/23 02:47:31;;;;;;;33.01;17.57;;;;;;;-4.31;88.09;99462.28;1981821;79;20312;-74
2021/12/23 02:50:34;;;;;;;31.12;18.90;;;;;;;-4.25;88.16;99455.06;1982740;81;20200;-74
2021/12/23 02:53:38;;;;;;;30.39;17.97;;;;;;;-4.21;88.04;99446.81;1982978;81;21269;-74
2021/12/23 02:56:40;;;;;;;30.29;17.50;;;;;;;-4.16;88.05;99450.47;1982598;81;20181;-74
2021/12/23 02:59:43;;;;;;;31.68;17.48;;;;;;;-4.08;88.01;99453.44;1982745;81;20220;-73
2021/12/23 03:02:46;;;;;;;32.51;18.82;;;;;;;-4.10;87.75;99443.22;1982073;79;21521;-74
2021/12/23 03:05:51;;;;;;;30.51;18.98;;;;;;;-4.08;88.01;99448.38;1983620;81;20746;-74
2021/12/23 03:08:59;;;;;;;29.64;17.82;;;;;;;-4.06;88.09;99442.59;1984041;81;20200;-74
2021/12/23 03:12:02;;;;;;;32.01;19.85;;;;;;;-4.05;88.13;99448.53;1983643;81;20311;-73
2021/12/23 03:15:05;;;;;;;35.11;20.51;;;;;;;-4.00;88.33;99439.50;1982584;81;20259;-73
2021/12/23 03:18:08;;;;;;;34.00;18.87;;;;;;;-3.94;88.38;99424.63;1983785;79;25224;-74
2021/12/23 03:21:11;;;;;;;35.19;20.34;;;;;;;-3.87;88.38;99423.28;1983963;81;20275;-74
2021/12/23 03:24:15;;;;;;;33.79;19.51;;;;;;;-3.83;88.23;99430.25;1983595;81;20234;-74
2021/12/23 03:27:17;;;;;;;35.32;19.48;;;;;;;-3.82;88.06;99427.78;1983401;81;20326;-73
2021/12/23 03:30:20;;;;;;;34.37;20.08;;;;;;;-3.83;87.88;99420.97;1981989;79;21431;-74
2021/12/23 03:33:23;;;;;;;36.77;19.41;;;;;;;-3.81;87.80;99424.47;1983526;81;20897;-74
2021/12/23 03:36:26;;;;;;;33.44;19.57;;;;;;;-3.84;87.78;99424.31;1988191;81;20195;-73
2021/12/23 03:39:28;;;;;;;35.89;20.67;;;;;;;-3.83;87.78;99420.09;1988452;81;20191;-73
2021/12/23 03:42:31;;;;;;;32.46;19.72;;;;;;;-3.82;87.89;99414.22;1985185;81;20238;-74
2021/12/23 03:45:33;;;;;;;34.61;20.00;;;;;;;-3.83;87.94;99405.75;1990295;79;22245;-74
2021/12/23 03:48:36;;;;;;;35.90;19.82;;;;;;;-3.82;87.93;99386.34;1989041;81;20204;-74
2021/12/23 03:51:38;;;;;;;32.24;19.66;;;;;;;-3.80;87.99;99389.81;1988505;81;20184;-74
2021/12/23 03:54:41;;;;;;;34.83;18.74;;;;;;;-3.84;87.82;99391.34;1992414;81;20305;-74
2021/12/23 03:57:46;;;;;;;34.57;19.49;;;;;;;-3.82;88.09;99393.94;1988304;81;20164;-74
2021/12/23 04:00:50;;;;;;;35.03;19.88;;;;;;;-3.79;88.14;99389.03;1987456;78;22331;-74
2021/12/23 04:03:53;;;;;;;38.02;20.59;;;;;;;-3.77;88.05;99392.50;1988048;81;20263;-74
2021/12/23 04:06:56;;;;;;;35.06;20.34;;;;;;;-3.79;88.00;99394.97;1987705;81;20187;-73
2021/12/23 04:09:59;;;;;;;35.50;19.94;;;;;;;-3.85;87.90;99398.84;1987441;81;20184;-73
2021/12/23 04:13:02;;;;;;;36.04;19.87;;;;;;;-3.84;88.19;99395.53;1987727;81;20192;-74
2021/12/23 04:16:05;;;;;;;34.18;19.88;;;;;;;-3.81;88.22;99404.16;1986121;79;20777;-73
2021/12/23 04:19:10;;;;;;;35.09;19.46;;;;;;;-3.80;88.25;99407.56;1987825;81;20329;-73
2021/12/23 04:22:13;;;;;;;35.39;20.00;;;;;;;-3.81;88.18;99399.09;1987625;81;20207;-73
2021/12/23 04:25:18;;;;;;;34.90;19.62;;;;;;;-3.82;88.14;99387.22;1987542;81;20168;-73
2021/12/23 04:28:22;;;;;;;35.06;19.52;;;;;;;-3.81;88.09;99388.94;1987732;81;20241;-73
2021/12/23 04:31:24;;;;;;;36.54;19.92;;;;;;;-3.80;88.08;99378.00;1985095;79;23233;-74
2021/12/23 04:34:27;;;;;;;36.89;20.90;;;;;;;-3.79;88.01;99376.34;1988041;81;20192;-74
2021/12/23 04:37:30;;;;;;;45.07;22.07;;;;;;;-3.81;87.97;99372.84;1987317;81;20245;-74
2021/12/23 04:40:37;;;;;;;45.70;22.56;;;;;;;-3.81;88.09;99368.66;1988020;81;20215;-73
2021/12/23 04:43:41;;;;;;;39.47;22.01;;;;;;;-3.80;88.08;99360.25;1988152;81;20175;-74
2021/12/23 04:46:43;;;;;;;39.81;20.78;;;;;;;-3.80;88.08;99355.19;1986741;79;21545;-74
2021/12/23 04:49:46;;;;;;;39.01;21.36;;;;;;;-3.82;87.87;99361.84;1987078;81;20188;-73
2021/12/23 04:52:49;;;;;;;38.31;21.19;;;;;;;-3.90;87.70;99347.91;1987565;81;20953;-74
2021/12/23 04:55:52;;;;;;;37.96;20.53;;;;;;;-3.95;87.73;99339.16;1987408;81;20217;-74
2021/12/23 04:58:54;;;;;;;40.50;19.79;;;;;;;-3.99;87.74;99343.22;1986781;81;20300;-74
2021/12/23 05:01:57;;;;;;;44.76;21.11;;;;;;;-3.99;87.87;99339.81;1985721;79;21520;-74
2021/12/23 05:05:00;;;;;;;37.72;20.56;;;;;;;-4.02;87.92;99350.66;1987278;81;20296;-74
2021/12/23 05:08:03;;;;;;;41.46;22.73;;;;;;;-4.01;88.20;99339.72;1987297;81;20192;-73
2021/12/23 05:11:05;;;;;;;43.73;21.39;;;;;;;-4.00;88.28;99344.00;1986994;81;20213;-74
2021/12/23 05:14:08;;;;;;;41.62;21.40;;;;;;;-4.01;88.25;99349.00;1987782;81;20638;-74
2021/12/23 05:17:11;;;;;;;41.02;21.11;;;;;;;-4.03;88.41;99355.66;1985415;79;20757;-74
2021/12/23 05:20:16;;;;;;;40.87;22.04;;;;;;;-4.03;88.50;99355.66;1983735;81;20300;-74
2021/12/23 05:23:19;;;;;;;44.72;22.52;;;;;;;-4.04;88.47;99359.88;1986640;81;20191;-74
2021/12/23 05:26:22;;;;;;;38.90;21.66;;;;;;;-4.06;88.33;99352.97;1987068;81;20195;-74
2021/12/23 05:29:25;;;;;;;40.57;21.19;;;;;;;-4.06;88.36;99343.72;1986525;81;20310;-73
2021/12/23 05:32:28;;;;;;;43.34;22.23;;;;;;;-4.13;87.89;99345.81;1985868;81;21699;-73
2021/12/23 05:35:31;;;;;;;40.13;21.44;;;;;;;-4.13;87.99;99345.81;1987623;81;20231;-73
2021/12/23 05:38:33;;;;;;;37.21;20.42;;;;;;;-4.13;88.08;99333.16;1987871;81;20786;-73
2021/12/23 05:41:36;;;;;;;41.50;21.54;;;;;;;-4.15;87.97;99339.81;1987174;81;20184;-73
2021/12/23 05:44:39;;;;;;;39.79;21.04;;;;;;;-4.21;88.02;99325.16;1987274;81;20250;-74
2021/12/23 05:47:42;;;;;;;43.40;21.46;;;;;;;-4.23;87.80;99323.34;1984914;79;20229;-74
2021/12/23 05:50:45;;;;;;;37.46;20.09;;;;;;;-4.25;87.91;99320.72;1983669;81;20220;-74
2021/12/23 05:53:47;;;;;;;39.12;21.80;;;;;;;-4.20;87.94;99315.88;1987252;81;20193;-74
2021/12/23 05:56:50;;;;;;;44.27;21.39;;;;;;;-4.23;87.75;99310.66;1987439;81;20287;-74
2021/12/23 05:59:53;;;;;;;37.59;19.68;;;;;;;-4.20;87.82;99316.75;1986713;81;20183;-74
2021/12/23 06:02:57;;;;;;;39.88;20.80;;;;;;;-4.17;87.84;99316.03;1980347;79;21328;-73
2021/12/23 06:06:00;;;;;;;38.94;20.09;;;;;;;-4.21;88.00;99322.63;1982272;81;20200;-73
2021/12/23 06:09:03;;;;;;;38.31;20.26;;;;;;;-4.17;88.29;99323.66;1982113;81;20306;-73
2021/12/23 06:12:06;;;;;;;39.07;20.47;;;;;;;-4.15;88.37;99324.59;1982894;81;20302;-74
2021/12/23 06:15:10;;;;;;;36.71;19.92;;;;;;;-4.12;88.48;99310.44;1980838;81;20844;-74
2021/12/23 06:18:13;;;;;;;35.98;19.69;;;;;;;-4.08;88.48;99308.94;1982381;79;24489;-73
2021/12/23 06:21:15;;;;;;;38.31;20.43;;;;;;;-4.07;88.49;99306.47;1982117;81;20646;-74
2021/12/23 06:24:18;;;;;;;39.01;19.21;;;;;;;-4.07;88.48;99303.94;1982244;81;20798;-73
2021/12/23 06:27:22;;;;;;;37.17;21.61;;;;;;;-4.02;88.67;99296.56;1981979;81;20207;-73
2021/12/23 06:30:24;;;;;;;39.88;21.31;;;;;;;-3.98;88.58;99290.84;1981172;79;21692;-73
2021/12/23 06:33:27;;;;;;;38.12;20.24;;;;;;;-3.98;88.48;99285.78;1982643;81;20200;-74
2021/12/23 06:36:29;;;;;;;36.68;19.62;;;;;;;-3.96;88.51;99279.97;1986855;81;20227;-73
2021/12/23 06:39:34;;;;;;;35.52;19.77;;;;;;;-3.98;88.40;99285.78;1987353;81;20188;-73
2021/12/23 06:42:36;;;;;;;36.19;19.68;;;;;;;-3.96;88.52;99291.78;1987112;81;20191;-73
2021/12/23 06:45:39;;;;;;;37.92;20.79;;;;;;;-3.96;88.48;99292.66;1985956;79;21217;-73
2021/12/23 06:48:42;;;;;;;42.71;20.41;;;;;;;-3.99;88.43;99287.44;1987675;81;20200;-73
2021/12/23 06:51:45;;;;;;;37.88;20.39;;;;;;;-3.97;88.63;99282.44;1987175;81;20211;-73
2021/12/23 06:54:52;;;;;;;32.80;19.93;;;;;;;-3.99;88.63;99296.72;1987833;81;20200;-74
2021/12/23 06:57:56;;;;;;;35.06;20.22;;;;;;;-3.99;88.61;99286.56;1987060;81;20172;-73
2021/12/23 07:00:59;;;;;;;36.73;19.51;;;;;;;-3.98;88.48;99284.09;1985966;81;23301;-73
2021/12/23 07:04:17;;;;;;;32.50;19.14;;;;;;;-4.00;88.41;99294.97;1986866;81;20336;-73
2021/12/23 07:07:39;;;;;;;37.03;19.53;;;;;;;-4.00;88.41;99305.09;1987963;81;20200;-73
2021/12/23 07:10:42;;;;;;;36.38;20.04;;;;;;;-3.98;88.54;99299.31;1986680;81;20249;-73
2021/12/23 07:13:44;;;;;;;32.22;18.34;;;;;;;-3.99;88.48;99300.13;1986722;81;20183;-73
2021/12/23 07:16:47;;;;;;;32.02;18.62;;;;;;;-3.97;88.55;99313.72;1985053;79;20560;-73
2021/12/23 07:19:50;;;;;;;37.22;19.17;;;;;;;-3.95;88.55;99308.75;1986454;81;20211;-74
2021/12/23 07:22:53;;;;;;;35.24;19.24;;;;;;;-3.90;88.55;99309.00;1986674;81;21025;-74
2021/12/23 07:25:55;;;;;;;36.42;19.20;;;;;;;-3.92;88.38;99308.94;1986636;81;20200;-73
2021/12/23 07:29:03;;;;;;;36.43;19.09;;;;;;;-3.93;88.55;99322.41;1983337;81;20210;-73
2021/12/23 07:32:06;;;;;;;35.12;19.79;;;;;;;-3.92;88.56;99324.13;1985658;79;22712;-74
2021/12/23 07:35:09;;;;;;;39.19;19.97;;;;;;;-3.92;88.71;99318.19;1987358;81;20736;-73
2021/12/23 07:38:16;;;;;;;41.10;20.89;;;;;;;-3.88;88.73;99308.28;1988396;81;20628;-78
2021/12/23 07:41:19;;;;;;;33.83;19.36;;;;;;;-3.85;88.77;99307.56;1988280;81;20319;-76
2021/12/23 07:44:22;;;;;;;36.32;19.97;;;;;;;-3.83;88.81;99300.91;1986532;81;20205;-75
2021/12/23 07:47:25;;;;;;;38.69;20.16;;;;;;;-3.80;88.79;99291.78;1985624;78;21587;-74
2021/12/23 07:50:28;;;;;;;38.78;20.32;;;;;;;-3.75;88.83;99281.88;1987217;81;20765;-74
2021/12/23 07:53:30;;;;;;;36.76;20.21;;;;;;;-3.67;88.96;99283.97;1987996;81;20799;-76
2021/12/23 07:56:37;;;;;;;41.83;21.07;;;;;;;-3.59;88.90;99284.38;1976439;81;20270;-76
2021/12/23 07:59:39;;;;;;;37.93;21.36;;;;;;;-3.54;88.79;99274.44;1985736;81;20258;-73
2021/12/23 08:02:43;;;;;;;35.81;19.92;;;;;;;-3.52;88.73;99271.19;1979531;81;21685;-73
2021/12/23 08:05:46;;;;;;;40.69;20.78;;;;;;;-3.44;88.92;99266.47;1982077;81;20169;-77
2021/12/23 08:08:49;;;;;;;36.83;20.28;;;;;;;-3.39;88.76;99262.50;1970615;81;20205;-75
2021/12/23 08:11:51;;;;;;;36.53;20.17;;;;;;;-3.36;88.64;99266.06;1980379;81;20196;-75
2021/12/23 08:14:54;;;;;;;37.27;21.44;;;;;;;-3.35;88.49;99262.72;1980718;81;20258;-75
2021/12/23 08:18:12;;;;;;;41.37;20.70;;;;;;;-3.32;88.50;99267.06;1980718;81;20279;-75
2021/12/23 08:21:14;;;;;;;38.61;20.41;;;;;;;-3.27;88.53;99254.59;1980329;81;20356;-73
2021/12/23 08:24:17;;;;;;;38.16;21.00;;;;;;;-3.19;88.62;99264.34;1976020;81;20220;-72
2021/12/23 08:27:21;;;;;;;35.58;21.07;;;;;;;-3.11;88.50;99267.22;1980207;81;21163;-73
2021/12/23 08:30:25;;;;;;;42.30;22.00;;;;;;;-3.06;88.39;99265.75;1977484;79;22271;-74
2021/12/23 08:33:28;;;;;;;36.72;20.77;;;;;;;-2.95;88.33;99271.34;1980585;81;20250;-74
2021/12/23 08:36:31;;;;;;;37.31;20.53;;;;;;;-2.87;88.31;99276.00;1985987;81;20242;-74
2021/12/23 08:39:34;;;;;;;37.33;20.64;;;;;;;-2.78;88.12;99276.41;1986519;81;20179;-74
2021/12/23 08:42:37;;;;;;;34.32;19.68;;;;;;;-2.69;87.89;99276.00;1986427;81;21049;-73
2021/12/23 08:45:39;;;;;;;36.27;21.32;;;;;;;-2.64;87.64;99271.97;1985500;79;20651;-74
2021/12/23 08:48:42;;;;;;;34.49;20.73;;;;;;;-2.57;87.73;99273.97;1987061;81;20184;-74
2021/12/23 08:51:44;;;;;;;37.86;21.34;;;;;;;-2.48;87.66;99259.16;1986841;81;20184;-74
2021/12/23 08:54:47;;;;;;;35.62;20.16;;;;;;;-2.43;87.42;99259.34;1986376;81;20274;-74
2021/12/23 08:57:50;;;;;;;35.63;20.01;;;;;;;-2.38;87.22;99257.88;1987268;81;20167;-76
2021/12/23 09:00:52;;;;;;;37.26;20.69;;;;;;;-2.33;87.15;99258.09;1985627;78;21193;-74
2021/12/23 09:03:55;;;;;;;36.49;20.20;;;;;;;-2.23;87.13;99267.88;1986978;81;20213;-74
2021/12/23 09:06:58;;;;;;;36.44;20.86;;;;;;;-2.20;86.87;99263.78;1987509;81;20225;-74
2021/12/23 09:10:01;;;;;;;36.56;20.23;;;;;;;-2.16;86.74;99259.69;1987390;81;20298;-74
2021/12/23 09:13:03;;;;;;;37.89;20.12;;;;;;;-2.09;86.78;99246.44;1986930;81;20247;-74
2021/12/23 09:16:06;;;;;;;35.76;19.81;;;;;;;-2.01;86.81;99241.69;1984935;79;23891;-74
2021/12/23 09:19:09;;;;;;;32.57;19.68;;;;;;;-1.91;86.86;99239.59;1987168;81;20184;-74
2021/12/23 09:22:12;;;;;;;37.18;20.00;;;;;;;-1.85;86.69;99231.34;1987209;81;20188;-74
2021/12/23 09:25:24;;;;;;;33.54;19.99;;;;;;;-1.80;86.46;99239.16;1986995;81;20301;-74
2021/12/23 09:29:06;;;;;;;35.32;20.11;;;;;;;-1.78;86.53;99228.28;1987637;81;20253;-74
2021/12/23 09:35:33;;;;;;;37.38;20.57;;;;;;;-1.54;86.39;99241.13;1987099;81;20225;-74
2021/12/23 09:38:36;;;;;;;34.46;20.66;;;;;;;-1.44;86.34;99257.63;1987159;81;20278;-75
2021/12/23 09:41:43;;;;;;;35.54;21.41;;;;;;;-1.40;86.42;99264.59;1987810;81;20200;-74
2021/12/23 09:44:47;;;;;;;38.83;20.74;;;;;;;-1.34;86.36;99259.75;1987450;81;20691;-74
2021/12/23 09:47:50;;;;;;;35.22;20.59;;;;;;;-1.20;86.50;99257.75;1985674;79;25522;-75
2021/12/23 09:50:54;;;;;;;35.81;21.69;;;;;;;-1.08;86.43;99250.59;1987934;81;20199;-75
2021/12/23 09:54:01;;;;;;;39.46;23.69;;;;;;;-0.95;86.30;99258.78;1987504;81;20606;-75
2021/12/23 09:57:04;;;;;;;39.89;22.11;;;;;;;-0.82;86.09;99259.25;1990489;81;20199;-75
2021/12/23 10:00:11;;;;;;;39.82;23.17;;;;;;;-0.73;85.75;99255.38;1985968;81;20225;-75
2021/12/23 10:03:18;;;;;;;45.96;24.58;;;;;;;-0.64;85.17;99247.22;1987496;79;23993;-75
2021/12/23 10:06:23;;;;;;;42.08;23.54;;;;;;;-0.54;84.68;99240.75;1982271;82;20927;-75
2021/12/23 10:10:17;;;;;;;42.32;24.04;;;;;;;-0.48;84.60;99229.13;1979291;82;20196;-75
2021/12/23 10:33:31;;;;;;;36.48;22.10;;;;;;;-0.13;85.17;99189.56;1975633;79;23083;-76
2021/12/23 10:40:03;;;;;;;43.88;24.91;;;;;;;0.10;85.10;99181.81;1976036;82;21195;-76
2021/12/23 10:43:08;;;;;;;39.22;23.41;;;;;;;0.19;84.90;99179.56;1975847;82;20337;-75
2021/12/23 10:46:20;;;;;;;44.36;26.84;;;;;;;0.26;84.47;99176.38;1972943;79;20891;-76
2021/12/23 10:49:33;;;;;;;41.14;24.81;;;;;;;0.33;84.51;99168.09;1975375;82;20303;-76
2021/12/23 10:52:48;;;;;;;40.19;24.49;;;;;;;0.45;84.39;99167.63;1975233;82;20356;-76
2021/12/23 10:59:51;;;;;;;40.38;23.76;;;;;;;0.66;84.49;99155.53;1970857;82;20477;-76
2021/12/23 11:03:14;;;;;;;36.47;22.85;;;;;;;0.76;84.50;99155.00;1979028;79;21049;-76
2021/12/23 11:09:39;;;;;;;36.75;23.49;;;;;;;0.93;84.24;99152.09;1979773;81;20395;-75
2021/12/23 11:40:26;;;;;;;38.06;21.98;;;;;;;1.40;84.18;99115.94;1980743;81;20379;-76
2021/12/23 11:43:48;;;;;;;;;;;;;;;1.43;84.19;99110.03;1980626;82;20344;-75
2021/12/23 11:46:55;;;;;;;35.02;20.10;;;;;;;1.45;84.20;99119.53;1977351;79;20325;-76
2021/12/23 11:49:58;;;;;;;32.08;20.70;;;;;;;1.48;84.30;99105.94;1976766;82;20570;-75
2021/12/23 11:53:02;;;;;;;34.21;21.51;;;;;;;1.50;84.51;99094.91;1980135;81;20439;-75
2021/12/23 11:56:08;;;;;;;31.66;21.33;;;;;;;1.55;84.77;99095.03;1980137;82;20333;-75
2021/12/23 11:59:13;;;;;;;33.17;21.04;;;;;;;1.55;84.81;99092.47;1978681;81;20391;-75
2021/12/23 12:02:20;;;;;;;34.33;22.15;;;;;;;1.60;84.83;99082.34;1978097;80;22558;-75
2021/12/23 12:05:23;;;;;;;34.92;21.86;;;;;;;1.64;84.79;99076.50;1980132;81;20837;-75
2021/12/23 12:08:26;;;;;;;34.09;21.76;;;;;;;1.69;84.84;99067.25;1979865;81;20390;-76
2021/12/23 12:11:29;;;;;;;37.94;22.81;;;;;;;1.74;84.77;99069.09;1981178;81;20855;-75
2021/12/23 12:14:34;;;;;;;32.69;22.84;;;;;;;1.76;84.76;99062.31;1980558;81;20475;-75
2021/12/23 12:17:37;;;;;;;35.16;21.26;;;;;;;1.83;84.82;99057.38;1978170;79;22379;-76
2021/12/23 12:20:52;;;;;;;39.01;23.04;;;;;;;1.91;84.64;99054.16;1980575;81;20335;-75
2021/12/23 12:24:15;;;;;;;34.60;23.08;;;;;;;1.99;84.52;99054.34;1979525;81;20325;-75
2021/12/23 12:27:25;;;;;;;36.33;23.04;;;;;;;2.04;84.31;99052.75;1980322;81;20348;-75
2021/12/23 12:30:40;;;;;;;37.56;23.42;;;;;;;2.12;84.29;99052.09;1978707;79;21849;-75
2021/12/23 12:33:55;;;;;;;32.26;21.83;;;;;;;2.20;84.37;99041.19;1981502;81;20330;-76
2021/12/23 12:36:59;;;;;;;32.29;20.85;;;;;;;2.27;84.53;99043.03;1978754;82;20407;-75
2021/12/23 12:40:02;;;;;;;34.31;20.76;;;;;;;2.33;84.53;99040.63;1979896;81;20337;-75
2021/12/23 12:43:52;;;;;;;33.22;21.46;;;;;;;2.36;84.62;99033.88;1976426;81;20459;-75
2021/12/23 12:47:06;;;;;;;32.61;20.38;;;;;;;2.38;84.74;99024.53;1977965;80;22101;-75
2021/12/23 12:50:18;;;;;;;30.95;19.77;;;;;;;2.41;84.84;99018.59;1979806;81;20333;-75
2021/12/23 12:53:21;;;;;;;32.59;20.14;;;;;;;2.43;84.95;99019.50;1980285;81;20321;-75
2021/12/23 12:56:27;;;;;;;28.85;19.13;;;;;;;2.46;85.16;99011.88;1980117;81;20382;-75
2021/12/23 12:59:35;;;;;;;32.17;19.85;;;;;;;2.49;85.34;99001.69;1980210;81;20884;-75
2021/12/23 13:02:38;;;;;;;29.23;18.86;;;;;;;2.51;85.55;99011.97;1977157;81;21039;-74
2021/12/23 13:05:50;;;;;;;29.90;18.88;;;;;;;2.51;85.69;99006.84;1979986;82;20208;-75
2021/12/23 13:09:03;;;;;;;27.36;18.30;;;;;;;2.52;85.66;99000.91;1979594;81;20380;-75
2021/12/23 13:12:07;;;;;;;26.69;16.66;;;;;;;2.56;85.87;98992.44;1979510;82;21020;-75
2021/12/23 13:15:46;;;;;;;25.26;16.41;;;;;;;2.61;86.01;98991.72;1977924;81;20329;-75
2021/12/23 13:19:17;;;;;;;22.60;15.66;;;;;;;2.67;86.29;98990.97;1964144;82;21057;-75
2021/12/23 13:22:22;;;;;;;25.40;15.30;;;;;;;2.71;86.62;98988.50;1980032;82;20188;-75
2021/12/23 13:25:25;;;;;;;21.77;14.14;;;;;;;2.78;87.02;98975.81;1979591;82;20341;-75
2021/12/23 13:28:43;;;;;;;22.55;14.10;;;;;;;2.87;87.31;98968.28;1980198;82;20357;-75
2021/12/23 13:31:52;;;;;;;21.59;13.86;;;;;;;3.01;87.49;98969.41;1978064;79;24610;-75
2021/12/23 13:34:54;;;;;;;23.66;14.26;;;;;;;3.07;87.39;98971.25;1979481;82;20340;-75
2021/12/23 13:37:57;;;;;;;20.41;13.24;;;;;;;3.12;87.35;98960.22;1978672;82;20348;-75
2021/12/23 13:41:11;;;;;;;18.86;11.82;;;;;;;3.20;87.34;98968.91;1979132;82;20317;-75
2021/12/23 13:44:14;;;;;;;17.27;11.71;;;;;;;3.30;87.33;98975.09;1979351;82;20988;-75
2021/12/23 13:47:20;;;;;;;16.75;11.24;;;;;;;3.41;87.08;98958.19;1978053;82;28681;-74
2021/12/23 13:50:27;;;;;;;14.68;10.95;;;;;;;3.49;86.83;98954.03;1979392;82;20466;-75
2021/12/23 13:53:29;;;;;;;16.21;11.24;;;;;;;3.54;86.77;98949.81;1979674;82;20450;-75
2021/12/23 13:56:35;;;;;;;15.48;10.10;;;;;;;3.63;86.66;98949.13;1980832;82;20366;-74
2021/12/23 13:59:39;;;;;;;16.94;10.71;;;;;;;3.68;86.40;98949.19;1979078;82;20415;-75
2021/12/23 14:02:42;;;;;;;13.19;9.81;;;;;;;3.71;86.27;98941.53;1978198;79;20364;-74
2021/12/23 14:05:49;;;;;;;17.90;9.98;;;;;;;3.72;86.12;98938.13;1979334;82;20369;-74
2021/12/23 14:08:52;;;;;;;15.21;9.79;;;;;;;3.71;86.04;98933.84;1979222;82;20341;-74
2021/12/23 14:11:55;;;;;;;15.84;10.15;;;;;;;3.72;85.96;98931.28;1979380;82;20340;-74
2021/12/23 14:15:00;;;;;;;14.89;10.00;;;;;;;3.71;85.89;98924.44;1979173;82;20375;-74
2021/12/23 14:24:51;;;;;;;12.68;8.40;;;;;;;3.96;85.76;98922.25;1976332;82;20379;-73
2021/12/23 14:27:53;;;;;;;13.89;8.50;;;;;;;4.09;85.44;98903.56;1975918;82;21237;-74
2021/12/23 14:31:00;;;;;;;12.29;8.93;;;;;;;4.19;85.09;98905.44;1976910;79;20407;-74
2021/12/23 14:34:09;;;;;;;12.46;7.56;;;;;;;4.28;84.55;98909.81;1980851;81;20362;-74
2021/12/23 14:37:26;;;;;;;13.06;8.05;;;;;;;4.34;84.32;98915.03;1981267;81;20893;-74
2021/12/23 14:40:29;;;;;;;11.31;7.66;;;;;;;4.43;84.21;98908.28;1981017;82;20408;-74
2021/12/23 14:43:54;;;;;;;10.19;7.06;;;;;;;4.49;83.77;98910.97;1981836;81;20329;-74
2021/12/23 14:47:13;;;;;;;10.04;7.54;;;;;;;4.55;83.51;98903.31;1980001;79;21515;-74
2021/12/23 14:50:17;;;;;;;10.56;7.13;;;;;;;4.62;83.22;98906.81;1980882;82;20363;-74
2021/12/23 14:53:21;;;;;;;12.36;6.74;;;;;;;4.70;82.91;98904.34;1981104;82;20208;-74
2021/12/23 14:56:24;;;;;;;10.54;7.21;;;;;;;4.72;82.65;98900.06;1977751;82;20811;-74
2021/12/23 14:59:26;;;;;;;10.30;7.15;;;;;;;4.75;82.59;98902.66;1982233;82;20375;-74
2021/12/23 15:02:30;;;;;;;11.85;7.30;;;;;;;4.77;82.42;98901.84;1979801;81;21037;-74
2021/12/23 15:05:35;;;;;;;10.74;7.05;;;;;;;4.79;82.28;98900.13;1977631;81;20336;-74
2021/12/23 15:08:45;;;;;;;9.70;6.97;;;;;;;4.81;82.21;98895.88;1981116;81;20388;-75
2021/12/23 15:11:48;;;;;;;8.49;6.63;;;;;;;4.81;82.10;98898.44;1981125;81;20329;-74
2021/12/23 15:14:52;;;;;;;9.38;6.97;;;;;;;4.83;81.97;98903.59;1981809;82;20416;-75
2021/12/23 15:18:01;;;;;;;10.85;6.86;;;;;;;4.83;81.97;98893.31;1980094;79;21289;-75
2021/12/23 15:21:10;;;;;;;11.80;6.78;;;;;;;4.85;81.82;98894.22;1981352;81;20431;-75
2021/12/23 15:24:27;;;;;;;12.18;7.13;;;;;;;4.83;81.87;98893.31;1978619;81;20246;-75
2021/12/23 15:27:49;;;;;;;8.55;6.44;;;;;;;4.81;82.01;98895.88;1981012;81;20518;-74
2021/12/23 15:30:52;;;;;;;8.81;6.44;;;;;;;4.78;82.01;98895.84;1979785;79;21590;-76
2021/12/23 15:33:55;;;;;;;7.50;5.70;;;;;;;4.75;81.96;98892.38;1982146;81;20321;-75